ZKJEE NZWS-NZRT

Flight info

Callsign ZKJEE
Flight time N/A
Altitude 12000
Route ESDAK Q821 DAMPI
Aircraft DHC6/L-SDFGR/C

Departure

Time 2026-05-05 09:23
Airport Westport Airport (NZWS)

Arrival

Time N/A
Airport Rangiora Airfield (NZRT)
Time Latitude Longitude Altitude Speed Heading
2026-05-05 09:17 -41.73411 171.58502 20 ft 0 kts 236°
2026-05-05 09:22 -41.73523 171.58275 20 ft 76 kts 236°
2026-05-05 09:23 -41.73933 171.57445 101 ft 124 kts 236°
2026-05-05 09:23 -41.74385 171.56490 492 ft 122 kts 238°
2026-05-05 09:23 -41.74880 171.55491 844 ft 133 kts 236°
2026-05-05 09:23 -41.75461 171.54491 1204 ft 140 kts 220°
2026-05-05 09:24 -41.76408 171.54207 1549 ft 144 kts 166°
2026-05-05 09:24 -41.77269 171.54822 1938 ft 141 kts 143°
2026-05-05 09:24 -41.78075 171.55591 2274 ft 145 kts 144°
2026-05-05 09:24 -41.78884 171.56366 2619 ft 148 kts 143°
2026-05-05 09:25 -41.79748 171.57167 2985 ft 150 kts 143°
2026-05-05 09:25 -41.80629 171.57958 3338 ft 153 kts 143°
2026-05-05 09:25 -41.81525 171.58743 3691 ft 155 kts 144°
2026-05-05 09:25 -41.82432 171.59517 4036 ft 157 kts 144°
2026-05-05 09:26 -41.83385 171.60308 4393 ft 160 kts 146°
2026-05-05 09:26 -41.84337 171.61033 4780 ft 159 kts 156°
2026-05-05 09:26 -41.85320 171.61796 5130 ft 163 kts 149°
2026-05-05 09:26 -41.86329 171.62511 5482 ft 166 kts 150°
2026-05-05 09:27 -41.87380 171.63223 5840 ft 168 kts 151°
2026-05-05 09:27 -41.88406 171.63922 6183 ft 170 kts 151°
2026-05-05 09:27 -41.89467 171.64656 6539 ft 171 kts 153°
2026-05-05 09:27 -41.90528 171.65393 6891 ft 172 kts 152°
2026-05-05 09:28 -41.91597 171.66081 7244 ft 172 kts 152°
2026-05-05 09:28 -41.92691 171.66732 7594 ft 172 kts 153°
2026-05-05 09:28 -41.93795 171.67363 7942 ft 172 kts 154°
2026-05-05 09:28 -41.94910 171.67993 8293 ft 172 kts 153°
2026-05-05 09:29 -41.95989 171.68622 8641 ft 171 kts 150°
2026-05-05 09:29 -41.97079 171.69319 9001 ft 170 kts 149°
2026-05-05 09:29 -41.98126 171.69985 9331 ft 172 kts 151°
2026-05-05 09:29 -41.99240 171.70663 9692 ft 171 kts 152°
2026-05-05 09:30 -42.00367 171.71337 9916 ft 180 kts 152°
2026-05-05 09:30 -42.01540 171.72022 10000 ft 187 kts 152°
2026-05-05 09:30 -42.02759 171.72712 10004 ft 191 kts 152°
2026-05-05 09:30 -42.03982 171.73397 10001 ft 193 kts 152°
2026-05-05 09:31 -42.05240 171.74089 10002 ft 194 kts 153°
2026-05-05 09:31 -42.06499 171.74760 10000 ft 195 kts 153°
2026-05-05 09:31 -42.07749 171.75421 10001 ft 194 kts 153°
2026-05-05 09:31 -42.09011 171.76085 10001 ft 194 kts 153°
2026-05-05 09:32 -42.10289 171.76758 9999 ft 194 kts 153°
2026-05-05 09:32 -42.11534 171.77414 9998 ft 194 kts 153°
2026-05-05 09:32 -42.12791 171.78056 10000 ft 194 kts 154°
2026-05-05 09:32 -42.14066 171.78710 10000 ft 194 kts 153°
2026-05-05 09:33 -42.15324 171.79355 10000 ft 194 kts 154°
2026-05-05 09:33 -42.16585 171.80003 10005 ft 193 kts 153°
2026-05-05 09:33 -42.17849 171.80657 10000 ft 192 kts 153°
2026-05-05 09:33 -42.19060 171.81280 10005 ft 189 kts 154°
2026-05-05 09:34 -42.19873 171.81692 10002 ft 186 kts 154°
2026-05-05 09:34 -42.21066 171.82305 9998 ft 182 kts 153°
2026-05-05 09:34 -42.22618 171.83123 9999 ft 180 kts 153°
2026-05-05 09:34 -42.23793 171.83744 9999 ft 179 kts 153°
2026-05-05 09:35 -42.24942 171.84349 10000 ft 178 kts 153°
2026-05-05 09:35 -42.26873 171.85366 10000 ft 178 kts 153°
2026-05-05 09:35 -42.28027 171.85973 10000 ft 178 kts 153°
2026-05-05 09:36 -42.29563 171.86784 10000 ft 178 kts 153°
2026-05-05 09:36 -42.30316 171.87182 10000 ft 177 kts 153°
2026-05-05 09:36 -42.31471 171.87794 10000 ft 177 kts 153°
2026-05-05 09:36 -42.32573 171.88380 10000 ft 177 kts 153°
2026-05-05 09:37 -42.33724 171.88996 10000 ft 176 kts 153°
2026-05-05 09:37 -42.34846 171.89603 10000 ft 175 kts 153°
2026-05-05 09:37 -42.35992 171.90212 10000 ft 174 kts 154°
2026-05-05 09:37 -42.37118 171.90809 10001 ft 172 kts 156°
2026-05-05 09:38 -42.38223 171.91393 9999 ft 170 kts 156°
2026-05-05 09:38 -42.39332 171.91976 9999 ft 170 kts 155°
2026-05-05 09:38 -42.40443 171.92568 10000 ft 170 kts 155°
2026-05-05 09:38 -42.40797 171.92759 10000 ft 169 kts 155°
2026-05-05 09:39 -42.41215 171.92984 10001 ft 169 kts 155°
2026-05-05 09:39 -42.42317 171.93570 10000 ft 169 kts 156°
2026-05-05 09:39 -42.43406 171.94141 10000 ft 169 kts 156°
2026-05-05 09:39 -42.44492 171.94712 9999 ft 168 kts 156°
2026-05-05 09:40 -42.45613 171.95304 10000 ft 168 kts 156°
2026-05-05 09:40 -42.46701 171.95880 9999 ft 168 kts 156°
2026-05-05 09:40 -42.47778 171.96450 9999 ft 168 kts 156°
2026-05-05 09:40 -42.48870 171.97027 10000 ft 168 kts 156°
2026-05-05 09:41 -42.49955 171.97598 10001 ft 168 kts 156°
2026-05-05 09:41 -42.51057 171.98176 10001 ft 168 kts 156°
2026-05-05 09:41 -42.52152 171.98748 10000 ft 168 kts 156°
2026-05-05 09:41 -42.53244 171.99319 9999 ft 168 kts 155°
2026-05-05 09:42 -42.54355 171.99919 9990 ft 170 kts 153°
2026-05-05 09:42 -42.55466 172.00510 9983 ft 173 kts 153°
2026-05-05 09:42 -42.56589 172.01101 9979 ft 174 kts 152°
2026-05-05 09:42 -42.57705 172.01705 9977 ft 176 kts 152°
2026-05-05 09:43 -42.58852 172.02328 9976 ft 176 kts 152°
2026-05-05 09:43 -42.60009 172.02956 9972 ft 177 kts 152°